ADDS TAF Board (Experimental) INFO Settings
IDs: Format: Expanded Condensed

KMDW - Chicago/Midway Intl, IL, US

Issued at 2043 UTC 30 Aug 2016
Updated at 2047 UTC 30 Aug 2016
Time1953Z 30/21Z 30/22Z 30/23Z 31/00Z 31/01Z 31/02Z 31/03Z 31/04Z 31/05Z 31/06Z 31/07Z 31/08Z 31/09Z
Type OBS PRVL PRVL PRVL PRVL PRVL PRVL PRVL PRVL PRVL PRVL PRVL PRVL PRVL
VIS 10 >6 >6 5 5 >6 >6 >6 >6 >6 >6 >6 >6 >6
CIG 250 200 200 30 30 180 180 180 180 180 180 180 180 180
Cover BKN BKN BKN BKN BKN BKN BKN BKN BKN BKN BKN BKN BKN BKN
FltCat VFR VFR VFR MVFR MVFR VFR VFR VFR VFR VFR VFR VFR VFR VFR
WX -- VCSH VCSH -SHRA VCTS -SHRA VCTS -- -- -- -- -- -- -- -- --
WDir 240 220 220 30 30 VRB VRB 300 300 300 300 300 300 300
WSpd 7 7 7 8 8 5 5 6 6 6 6 6 6 6
WGst -- -- -- -- -- -- -- -- -- -- -- -- -- --
R04/22
XWnd 2 -0 -0 2 2 VRB VRB 6 6 6 6 6 6 6
HWnd -7 -7 -7 8 8 VRB VRB -1 -1 -1 -1 -1 -1 -1
R13/31
XWnd -7 -7 -7 8 8 VRB VRB -1 -1 -1 -1 -1 -1 -1
HWnd -2 0 0 -2 -2 VRB VRB -6 -6 -6 -6 -6 -6 -6

Raw TAF
KMDW 302043Z 3021/3118 22007KT P6SM VCSH SCT040 BKN200
  FM302300 03008KT 5SM -SHRA VCTS BKN030CB BKN200
  FM310100 VRB05KT P6SM SCT040 BKN180
  FM310300 30006KT P6SM BKN180
  FM311200 01012KT P6SM BKN010
  FM311500 02013G19KT P6SM BKN025 BKN250


Raw METAR
KMDW 301953Z 24007KT 10SM SCT036 SCT180 BKN250 29/21 A3007 RMK AO2 SLP170 CB DSNT NE T02890206
KMDW 301853Z 24010G15KT 8SM SCT032 SCT200 BKN250 29/20 A3008 RMK AO2 SLP176 T02940200
KMDW 301809Z 31004KT 8SM FEW019 SCT028 BKN038 BKN200 BKN250 28/22 A3010
KMDW 301753Z 00000KT 8SM BKN019 BKN025 BKN200 BKN250 27/23 A3010 RMK AO2 SLP183 60017 T02720228 10278 20233 58007

METAR Board
Radar Display
Forecast Discussion

TAF Board Legend

Potential Impact
Threat None Slight Moderate High
Visibility (sm) ≥5.1 5.1>X≥3 3>X≥1 <1
Ceiling (100 ft) ≥30.1 30.1>X≥10 10>X≥5 <5
Wind Speed (kt) <10 10≤X<20 20≤X<30 ≥30
Wind Gust (kt) <15 15≤X<25 25≤X<35 ≥35
Weather No Wx Reported VCTS,-TS,-FZRA,SN TS,FZRA +TS,+FZRA,+SN